Time;durP1;ratioP1;P1;durP2;ratioP2;P2;SDS_P1;SDS_P2;PMS_P1;PMS_P2;Temp;Humidity;BMP_temperature;BMP_pressure;BME280_temperature;BME280_humidity;BME280_pressure;Samples;Min_cycle;Max_cycle;Signal;HPM_P1;HPM_P2
2021/07/17 00:00:45;;;;;;;;;;;16.30;99.90;;;;;;5079716;28;19920;-94
2021/07/17 00:03:11;;;;;;;;;;;16.40;99.90;;;;;;5106522;28;19931;-94
2021/07/17 00:05:36;;;;;;;;;;;16.40;99.90;;;;;;5063322;28;20394;-94
2021/07/17 00:08:03;;;;;;;;;;;16.40;99.90;;;;;;5096535;28;19920;-94
2021/07/17 00:10:48;;;;;;;;;;;16.40;99.90;;;;;;5079692;28;19946;-94
2021/07/17 00:13:15;;;;;;;;;;;16.40;99.90;;;;;;5079440;28;19927;-94
2021/07/17 00:15:41;;;;;;;;;;;16.40;99.90;;;;;;5095330;28;19923;-94
2021/07/17 00:18:07;;;;;;;;;;;16.30;99.90;;;;;;5088617;28;20017;-93
2021/07/17 00:20:33;;;;;;;;;;;16.30;99.90;;;;;;5099654;27;19923;-94
2021/07/17 00:22:59;;;;;;;;;;;16.30;99.90;;;;;;5116673;27;19923;-93
2021/07/17 00:25:25;;;;;;;;;;;16.30;99.90;;;;;;5099681;27;20305;-93
2021/07/17 00:27:51;;;;;;;;;;;16.20;99.90;;;;;;5096573;28;20282;-94
2021/07/17 00:30:17;;;;;;;;;;;16.30;99.90;;;;;;5096026;28;19969;-93
2021/07/17 00:32:43;;;;;;;;;;;16.30;99.90;;;;;;5116011;27;19923;-94
2021/07/17 00:35:10;;;;;;;;;;;16.30;99.90;;;;;;5099850;27;19953;-94
2021/07/17 00:37:36;;;;;;;;;;;16.30;99.90;;;;;;5116510;27;19924;-94
2021/07/17 00:40:08;;;;;;;;;;;16.20;99.90;;;;;;5096210;28;19920;-94
2021/07/17 00:42:35;;;;;;;;;;;16.20;99.90;;;;;;5095469;28;19984;-94
2021/07/17 00:45:01;;;;;;;;;;;16.10;99.90;;;;;;5099408;27;20003;-94
2021/07/17 00:47:27;;;;;;;;;;;16.10;99.90;;;;;;5094252;28;20019;-94
2021/07/17 00:49:53;;;;;;;;;;;16.10;99.90;;;;;;5095752;28;19992;-93
2021/07/17 00:52:19;;;;;;;;;;;16.10;99.90;;;;;;5078516;28;19924;-94
2021/07/17 00:54:46;;;;;;;;;;;16.10;99.90;;;;;;5112325;28;19928;-94
2021/07/17 00:57:12;;;;;;;;;;;16.00;99.90;;;;;;5111872;28;19951;-93
2021/07/17 00:59:39;;;;;;;;;;;16.00;99.90;;;;;;5095416;28;20346;-94
2021/07/17 01:02:06;;;;;;;;;;;16.00;99.90;;;;;;5097612;27;20305;-93
2021/07/17 01:04:32;;;;;;;;;;;16.00;99.90;;;;;;5098281;27;19927;-94
2021/07/17 01:06:58;;;;;;;;;;;16.00;99.90;;;;;;5098034;27;19923;-94
2021/07/17 01:09:24;;;;;;;;;;;16.00;99.90;;;;;;5115328;27;19942;-94
2021/07/17 01:11:51;;;;;;;;;;;16.00;99.90;;;;;;5080873;27;20367;-93
2021/07/17 01:14:17;;;;;;;;;;;16.00;99.90;;;;;;5081982;27;19968;-94
2021/07/17 01:16:43;;;;;;;;;;;16.00;99.90;;;;;;5111448;28;20299;-93
2021/07/17 01:19:10;;;;;;;;;;;16.00;99.90;;;;;;5094539;28;19973;-94
2021/07/17 01:21:36;;;;;;;;;;;15.90;99.90;;;;;;5115098;27;19924;-94
2021/07/17 01:24:02;;;;;;;;;;;15.90;99.90;;;;;;5098514;27;20320;-94
2021/07/17 01:26:28;;;;;;;;;;;15.90;99.90;;;;;;5111504;28;19923;-94
2021/07/17 01:28:54;;;;;;;;;;;15.90;99.90;;;;;;5094990;28;20382;-94
2021/07/17 01:31:20;;;;;;;;;;;15.80;99.90;;;;;;5081239;27;19919;-94
2021/07/17 01:33:45;;;;;;;;;;;15.80;99.90;;;;;;5081297;27;20292;-94
2021/07/17 01:36:12;;;;;;;;;;;15.80;99.90;;;;;;5097648;27;20051;-93
2021/07/17 01:38:38;;;;;;;;;;;15.80;99.90;;;;;;5098130;27;19920;-94
2021/07/17 01:41:04;;;;;;;;;;;15.90;99.90;;;;;;5080922;27;19930;-94
2021/07/17 01:43:29;;;;;;;;;;;15.90;99.90;;;;;;5091379;27;19931;-94
2021/07/17 01:45:59;;;;;;;;;;;16.00;99.90;;;;;;5094326;28;20260;-95
2021/07/17 01:48:25;;;;;;;;;;;16.00;99.90;;;;;;5094440;28;19924;-94
2021/07/17 01:50:51;;;;;;;;;;;16.10;99.90;;;;;;5111354;27;19973;-94
2021/07/17 01:53:16;;;;;;;;;;;16.10;99.90;;;;;;5114507;27;19923;-94
2021/07/17 01:55:42;;;;;;;;;;;16.10;99.90;;;;;;5097260;27;19919;-93
2021/07/17 01:58:08;;;;;;;;;;;16.10;99.90;;;;;;5110933;28;20020;-94
2021/07/17 02:00:34;;;;;;;;;;;16.10;99.90;;;;;;5110816;28;19923;-94
2021/07/17 02:03:00;;;;;;;;;;;16.10;99.90;;;;;;5077067;28;19926;-94
2021/07/17 02:05:26;;;;;;;;;;;16.20;99.90;;;;;;5110840;28;19927;-94
2021/07/17 02:07:52;;;;;;;;;;;16.10;99.90;;;;;;5111155;28;19927;-94
2021/07/17 02:10:22;;;;;;;;;;;16.10;99.90;;;;;;5094049;28;19923;-95
2021/07/17 02:12:55;;;;;;;;;;;16.10;99.90;;;;;;5094195;28;19930;-94
2021/07/17 02:15:21;;;;;;;;;;;16.10;99.90;;;;;;5093727;28;19919;-94
2021/07/17 02:17:47;;;;;;;;;;;16.00;99.90;;;;;;5093786;28;19933;-94
2021/07/17 02:20:13;;;;;;;;;;;16.00;99.90;;;;;;5076766;28;19923;-94
2021/07/17 02:22:39;;;;;;;;;;;16.00;99.90;;;;;;5096957;27;20356;-94
2021/07/17 02:25:05;;;;;;;;;;;16.10;99.90;;;;;;5113768;27;19920;-94
2021/07/17 02:27:31;;;;;;;;;;;16.10;99.90;;;;;;5076944;28;19924;-94
2021/07/17 02:29:57;;;;;;;;;;;16.10;99.90;;;;;;5077137;28;19931;-94
2021/07/17 02:32:23;;;;;;;;;;;16.10;99.90;;;;;;5110400;28;19920;-94
2021/07/17 02:34:49;;;;;;;;;;;16.10;99.90;;;;;;5110440;28;20058;-94
2021/07/17 02:37:16;;;;;;;;;;;16.10;99.90;;;;;;5079006;27;19963;-94
2021/07/17 02:39:41;;;;;;;;;;;16.10;99.90;;;;;;5113620;27;19923;-93
2021/07/17 02:42:07;;;;;;;;;;;16.20;99.90;;;;;;5096241;27;20382;-94
2021/07/17 02:44:33;;;;;;;;;;;16.10;99.90;;;;;;5076284;28;19967;-94
2021/07/17 02:46:58;;;;;;;;;;;16.10;99.90;;;;;;5092992;28;19961;-94
2021/07/17 02:49:24;;;;;;;;;;;16.10;99.90;;;;;;5076152;28;19924;-94
2021/07/17 02:51:50;;;;;;;;;;;16.10;99.90;;;;;;5095919;27;19930;-94
2021/07/17 02:54:16;;;;;;;;;;;16.10;99.90;;;;;;5096396;27;20014;-93
2021/07/17 02:56:42;;;;;;;;;;;16.10;99.90;;;;;;5092678;28;19923;-94
2021/07/17 02:59:08;;;;;;;;;;;16.10;99.90;;;;;;5093470;28;19931;-94
2021/07/17 03:01:34;;;;;;;;;;;16.10;99.90;;;;;;5092842;28;19923;-94
2021/07/17 03:04:00;;;;;;;;;;;16.10;99.90;;;;;;5109718;28;20030;-94
2021/07/17 03:06:29;;;;;;;;;;;16.10;99.90;;;;;;5093576;28;19920;-94
2021/07/17 03:08:55;;;;;;;;;;;16.10;99.90;;;;;;5096280;27;19930;-94
2021/07/17 03:11:21;;;;;;;;;;;16.10;99.90;;;;;;5078855;27;19915;-94
2021/07/17 03:13:47;;;;;;;;;;;16.00;99.90;;;;;;5113299;28;19931;-94
2021/07/17 03:16:13;;;;;;;;;;;16.10;99.90;;;;;;5095601;28;20377;-94
2021/07/17 03:18:40;;;;;;;;;;;16.00;99.90;;;;;;5096390;28;20064;-94
2021/07/17 03:21:06;;;;;;;;;;;16.00;99.90;;;;;;5095950;28;20009;-94
2021/07/17 03:23:32;;;;;;;;;;;16.10;99.90;;;;;;5092837;28;20401;-93
2021/07/17 03:25:58;;;;;;;;;;;16.10;99.90;;;;;;5079310;28;19927;-94
2021/07/17 03:28:24;;;;;;;;;;;16.00;99.90;;;;;;5096646;28;19920;-94
2021/07/17 03:30:50;;;;;;;;;;;16.10;99.90;;;;;;5112141;28;20000;-94
2021/07/17 03:33:16;;;;;;;;;;;16.10;99.90;;;;;;5096422;28;20036;-94
2021/07/17 03:35:41;;;;;;;;;;;16.00;99.90;;;;;;5078873;28;19924;-94
2021/07/17 03:38:11;;;;;;;;;;;16.10;99.90;;;;;;5097535;28;19968;-95
2021/07/17 03:40:37;;;;;;;;;;;16.10;99.90;;;;;;5095603;28;19920;-95
2021/07/17 03:43:03;;;;;;;;;;;16.10;99.90;;;;;;5095706;28;20379;-94
2021/07/17 03:45:28;;;;;;;;;;;16.10;99.90;;;;;;5095071;28;20466;-94
2021/07/17 03:47:54;;;;;;;;;;;16.10;99.90;;;;;;5096118;28;19923;-94
2021/07/17 03:50:20;;;;;;;;;;;16.20;99.90;;;;;;5079358;28;19919;-94
2021/07/17 03:52:46;;;;;;;;;;;16.20;99.90;;;;;;5092728;28;19953;-93
2021/07/17 03:55:12;;;;;;;;;;;16.20;99.90;;;;;;5078687;28;19959;-94
2021/07/17 03:57:38;;;;;;;;;;;16.30;99.90;;;;;;5079414;28;19930;-93
2021/07/17 04:00:04;;;;;;;;;;;16.30;99.90;;;;;;5096803;28;19923;-94
2021/07/17 04:02:39;;;;;;;;;;;16.30;99.90;;;;;;5109135;28;19923;-94
2021/07/17 04:05:05;;;;;;;;;;;16.30;99.90;;;;;;5109647;28;19927;-93
2021/07/17 04:07:30;;;;;;;;;;;16.30;99.90;;;;;;5092465;28;19927;-94
2021/07/17 04:09:56;;;;;;;;;;;16.40;99.90;;;;;;5092472;28;19924;-94
2021/07/17 04:12:22;;;;;;;;;;;16.40;99.90;;;;;;5112225;28;19973;-94
2021/07/17 04:14:47;;;;;;;;;;;16.40;99.90;;;;;;5096112;28;20266;-94
2021/07/17 04:17:13;;;;;;;;;;;16.40;99.90;;;;;;5112529;28;20409;-93
2021/07/17 04:19:39;;;;;;;;;;;16.50;99.90;;;;;;5095647;28;19923;-94
2021/07/17 04:22:05;;;;;;;;;;;16.50;99.90;;;;;;5097828;27;19933;-94
2021/07/17 04:24:30;;;;;;;;;;;16.50;99.90;;;;;;5099474;27;19923;-94
2021/07/17 04:26:56;;;;;;;;;;;16.50;99.90;;;;;;5099195;27;19992;-91
2021/07/17 04:29:22;;;;;;;;;;;16.50;99.90;;;;;;5116773;27;19920;-93
2021/07/17 04:31:48;;;;;;;;;;;16.60;99.90;;;;;;5095158;28;19927;-94
2021/07/17 04:34:13;;;;;;;;;;;16.60;99.90;;;;;;5095830;28;19944;-94
2021/07/17 04:36:39;;;;;;;;;;;16.60;99.90;;;;;;5095557;28;20018;-93
2021/07/17 04:39:05;;;;;;;;;;;16.70;99.90;;;;;;5095656;28;19938;-94
2021/07/17 04:41:31;;;;;;;;;;;16.70;99.90;;;;;;5098899;27;19919;-94
2021/07/17 04:43:57;;;;;;;;;;;16.70;99.90;;;;;;5095144;28;20027;-94
2021/07/17 04:46:22;;;;;;;;;;;16.70;99.90;;;;;;5117712;27;19931;-93
2021/07/17 04:48:48;;;;;;;;;;;16.80;99.90;;;;;;5099218;27;20337;-94
2021/07/17 04:51:14;;;;;;;;;;;16.80;99.90;;;;;;5081935;27;20033;-94
2021/07/17 04:53:40;;;;;;;;;;;16.80;99.90;;;;;;5082224;27;20015;-93
2021/07/17 04:56:06;;;;;;;;;;;16.80;99.90;;;;;;5115823;27;19920;-94
2021/07/17 04:58:31;;;;;;;;;;;16.90;99.90;;;;;;5099110;27;19915;-94
2021/07/17 05:00:57;;;;;;;;;;;16.90;99.90;;;;;;5098587;27;19972;-95
2021/07/17 05:03:23;;;;;;;;;;;16.90;99.90;;;;;;5115203;27;19930;-94
2021/07/17 05:05:48;;;;;;;;;;;16.90;99.90;;;;;;5081599;27;20342;-94
2021/07/17 05:08:14;;;;;;;;;;;16.90;99.90;;;;;;5078602;28;19923;-95
2021/07/17 05:10:40;;;;;;;;;;;17.00;99.90;;;;;;5095088;28;19926;-95
2021/07/17 05:13:12;;;;;;;;;;;17.00;99.90;;;;;;5082161;27;19973;-95
2021/07/17 05:15:39;;;;;;;;;;;17.00;99.90;;;;;;5098746;27;19919;-95
2021/07/17 05:18:05;;;;;;;;;;;17.00;99.90;;;;;;5098492;27;19927;-94
2021/07/17 05:20:31;;;;;;;;;;;17.10;99.90;;;;;;5115404;27;19919;-94
2021/07/17 05:22:57;;;;;;;;;;;17.10;99.90;;;;;;5098227;27;19934;-93
2021/07/17 05:25:22;;;;;;;;;;;17.10;99.90;;;;;;5112392;27;19920;-94
2021/07/17 05:27:48;;;;;;;;;;;17.20;99.90;;;;;;5098145;27;20096;-94
2021/07/17 05:30:14;;;;;;;;;;;17.20;99.90;;;;;;5081637;27;20324;-94
2021/07/17 05:32:40;;;;;;;;;;;17.20;99.90;;;;;;5096948;27;19919;-94
2021/07/17 05:35:06;;;;;;;;;;;17.20;99.90;;;;;;5097892;27;20346;-94
2021/07/17 05:37:31;;;;;;;;;;;17.20;99.90;;;;;;5098382;27;19927;-94
2021/07/17 05:39:58;;;;;;;;;;;17.20;99.90;;;;;;5098188;27;20344;-94
2021/07/17 05:42:24;;;;;;;;;;;17.20;99.90;;;;;;5111143;28;19973;-94
2021/07/17 05:44:50;;;;;;;;;;;17.30;99.90;;;;;;5111359;28;19928;-94
2021/07/17 05:47:16;;;;;;;;;;;17.30;99.90;;;;;;5097536;27;19924;-94
2021/07/17 05:49:42;;;;;;;;;;;17.30;99.90;;;;;;5081086;27;19919;-94
2021/07/17 05:52:08;;;;;;;;;;;17.40;99.90;;;;;;5097537;27;19923;-95
2021/07/17 05:54:33;;;;;;;;;;;17.40;99.90;;;;;;5094547;28;19930;-94
2021/07/17 05:56:59;;;;;;;;;;;17.40;99.90;;;;;;5093993;28;20414;-95
2021/07/17 05:59:25;;;;;;;;;;;17.40;99.90;;;;;;5078058;28;19920;-95
2021/07/17 06:01:51;;;;;;;;;;;17.50;99.90;;;;;;5077227;28;20269;-95
2021/07/17 06:04:16;;;;;;;;;;;17.50;99.90;;;;;;5077020;28;20042;-94
2021/07/17 06:06:42;;;;;;;;;;;17.50;99.90;;;;;;5111124;28;19969;-94
2021/07/17 06:09:08;;;;;;;;;;;17.50;99.90;;;;;;5094324;28;19919;-95
2021/07/17 06:11:34;;;;;;;;;;;17.50;99.90;;;;;;5093709;28;19924;-95
2021/07/17 06:14:00;;;;;;;;;;;17.60;99.90;;;;;;5111078;28;19930;-95
2021/07/17 06:16:25;;;;;;;;;;;17.60;99.90;;;;;;5093949;28;19990;-95
2021/07/17 06:18:51;;;;;;;;;;;17.60;99.90;;;;;;5077456;28;19924;-94
2021/07/17 06:21:17;;;;;;;;;;;17.60;99.90;;;;;;5097289;27;20377;-95
2021/07/17 06:23:43;;;;;;;;;;;17.70;99.90;;;;;;5094108;28;19923;-95
2021/07/17 06:26:08;;;;;;;;;;;17.70;99.90;;;;;;5113336;27;19974;-95
2021/07/17 06:28:34;;;;;;;;;;;17.70;99.90;;;;;;5114452;27;20397;-95
2021/07/17 06:31:00;;;;;;;;;;;17.80;99.90;;;;;;5097394;27;20318;-94
2021/07/17 06:33:26;;;;;;;;;;;17.80;99.90;;;;;;5080244;27;20002;-95
2021/07/17 06:35:51;;;;;;;;;;;17.80;99.90;;;;;;5096459;27;20072;-95
2021/07/17 06:38:17;;;;;;;;;;;17.80;99.90;;;;;;5079127;27;19931;-95
2021/07/17 06:40:43;;;;;;;;;;;17.80;99.90;;;;;;5097283;27;19933;-94
2021/07/17 06:43:09;;;;;;;;;;;17.90;99.90;;;;;;5080018;27;19927;-93
2021/07/17 06:45:35;;;;;;;;;;;17.90;99.90;;;;;;5113086;27;19926;-93
2021/07/17 06:48:00;;;;;;;;;;;17.90;99.90;;;;;;5113433;27;20385;-95
2021/07/17 06:50:26;;;;;;;;;;;17.90;99.90;;;;;;5113902;27;20378;-93
2021/07/17 06:52:52;;;;;;;;;;;18.00;99.90;;;;;;5093261;28;19928;-93
2021/07/17 06:55:18;;;;;;;;;;;18.00;99.90;;;;;;5095540;28;19931;-93
2021/07/17 06:57:45;;;;;;;;;;;18.00;99.90;;;;;;5079636;28;20021;-93
2021/07/17 07:00:12;;;;;;;;;;;18.00;99.90;;;;;;5093844;28;19923;-93
2021/07/17 07:02:38;;;;;;;;;;;18.00;99.90;;;;;;5113333;27;19924;-92
2021/07/17 07:05:05;;;;;;;;;;;18.10;99.90;;;;;;5096337;27;19931;-93
2021/07/17 07:07:31;;;;;;;;;;;18.10;99.90;;;;;;5113063;27;19996;-95
2021/07/17 07:09:57;;;;;;;;;;;18.10;99.90;;;;;;5096078;27;19946;-93
2021/07/17 07:12:23;;;;;;;;;;;18.20;99.90;;;;;;5097627;28;20360;-93
2021/07/17 07:14:51;;;;;;;;;;;18.20;99.90;;;;;;5114798;27;20366;-93
2021/07/17 07:17:16;;;;;;;;;;;18.20;99.90;;;;;;5122617;27;19975;-94
2021/07/17 07:19:42;;;;;;;;;;;18.20;99.90;;;;;;5113167;28;19928;-92
2021/07/17 07:22:08;;;;;;;;;;;18.20;99.90;;;;;;5093086;28;19932;-94
2021/07/17 07:24:34;;;;;;;;;;;18.30;99.90;;;;;;5079549;28;20271;-94
2021/07/17 07:26:59;;;;;;;;;;;18.30;99.90;;;;;;5096305;28;19924;-94
2021/07/17 07:29:25;;;;;;;;;;;18.30;99.90;;;;;;5096715;28;19954;-93
2021/07/17 07:31:51;;;;;;;;;;;18.40;99.90;;;;;;5112402;28;19919;-92
2021/07/17 07:34:20;;;;;;;;;;;18.40;99.90;;;;;;5097890;28;19927;-93
2021/07/17 07:36:46;;;;;;;;;;;18.40;99.90;;;;;;5103199;28;19976;-93
2021/07/17 07:39:12;;;;;;;;;;;18.40;99.90;;;;;;5103223;28;20404;-93
2021/07/17 07:41:38;;;;;;;;;;;18.50;99.90;;;;;;5079432;28;19927;-94
2021/07/17 07:44:04;;;;;;;;;;;18.40;99.90;;;;;;5113252;28;20427;-94
2021/07/17 07:46:32;;;;;;;;;;;18.50;99.90;;;;;;5096026;28;20042;-93
2021/07/17 07:48:59;;;;;;;;;;;18.50;99.90;;;;;;5113359;28;20367;-93
2021/07/17 07:51:24;;;;;;;;;;;18.60;99.90;;;;;;5109437;28;19924;-93
2021/07/17 07:53:50;;;;;;;;;;;18.60;99.90;;;;;;5075886;28;19942;-91
2021/07/17 07:56:16;;;;;;;;;;;18.60;99.90;;;;;;5077730;28;20002;-93
2021/07/17 07:58:41;;;;;;;;;;;18.60;99.90;;;;;;5116234;27;19931;-92
2021/07/17 08:01:07;;;;;;;;;;;18.70;99.90;;;;;;5115216;27;19927;-91
2021/07/17 08:03:33;;;;;;;;;;;18.70;99.90;;;;;;5099588;27;19919;-91
2021/07/17 08:05:59;;;;;;;;;;;18.70;99.90;;;;;;5098314;27;19935;-91
2021/07/17 08:08:24;;;;;;;;;;;18.70;99.90;;;;;;5099451;27;20339;-94
2021/07/17 08:10:50;;;;;;;;;;;18.70;99.90;;;;;;5096148;28;19924;-92
2021/07/17 08:13:16;;;;;;;;;;;18.70;99.90;;;;;;5079096;28;19920;-93
2021/07/17 08:15:42;;;;;;;;;;;18.80;99.90;;;;;;5099679;27;19962;-92
2021/07/17 08:18:08;;;;;;;;;;;18.80;99.90;;;;;;5116815;27;20055;-92
2021/07/17 08:20:34;;;;;;;;;;;18.80;99.90;;;;;;5096027;27;19928;-92
2021/07/17 08:23:00;;;;;;;;;;;18.90;99.90;;;;;;5098643;27;19934;-92
2021/07/17 08:25:26;;;;;;;;;;;18.90;99.90;;;;;;5107003;27;19950;-91
2021/07/17 08:27:51;;;;;;;;;;;19.00;99.90;;;;;;5117040;27;20366;-93
2021/07/17 08:30:17;;;;;;;;;;;19.00;99.90;;;;;;5087869;27;19934;-92
2021/07/17 08:32:43;;;;;;;;;;;19.00;99.90;;;;;;5083046;27;20338;-92
2021/07/17 08:35:09;;;;;;;;;;;19.00;99.90;;;;;;5096730;27;20089;-94
2021/07/17 08:37:34;;;;;;;;;;;19.00;99.90;;;;;;5120471;27;19931;-93
2021/07/17 08:40:04;;;;;;;;;;;19.10;99.90;;;;;;5081550;27;20011;-93
2021/07/17 08:42:31;;;;;;;;;;;19.10;99.90;;;;;;5081366;27;19962;-93
2021/07/17 08:45:01;;;;;;;;;;;19.20;99.90;;;;;;5099586;27;19927;-93
2021/07/17 08:47:30;;;;;;;;;;;19.30;99.90;;;;;;5097382;27;19985;-93
2021/07/17 08:49:57;;;;;;;;;;;19.30;99.90;;;;;;5115454;27;19926;-92
2021/07/17 08:52:23;;;;;;;;;;;19.40;99.90;;;;;;5132848;27;20006;-93
2021/07/17 08:54:49;;;;;;;;;;;19.40;99.90;;;;;;5115027;27;19923;-93
2021/07/17 08:57:15;;;;;;;;;;;19.40;99.90;;;;;;5101290;27;19919;-92
2021/07/17 08:59:41;;;;;;;;;;;19.40;99.90;;;;;;5098457;27;19919;-93
2021/07/17 09:02:07;;;;;;;;;;;19.50;99.90;;;;;;5111730;27;20340;-93
2021/07/17 09:04:32;;;;;;;;;;;19.50;99.90;;;;;;5092700;27;20000;-93
2021/07/17 09:06:58;;;;;;;;;;;19.60;99.90;;;;;;5078848;28;20359;-94
2021/07/17 09:09:31;;;;;;;;;;;19.70;99.90;;;;;;5081650;27;19924;-93
2021/07/17 09:11:57;;;;;;;;;;;19.80;99.90;;;;;;5116225;27;19967;-93
2021/07/17 09:14:41;;;;;;;;;;;19.90;99.90;;;;;;5101316;27;19967;-93
2021/07/17 09:17:07;;;;;;;;;;;19.90;99.90;;;;;;5120624;27;19924;-93
2021/07/17 09:19:33;;;;;;;;;;;20.00;99.90;;;;;;5127889;27;19988;-93
2021/07/17 09:22:00;;;;;;;;;;;20.00;99.90;;;;;;5137354;27;19927;-93
2021/07/17 09:24:26;;;;;;;;;;;20.00;99.90;;;;;;5115324;27;19992;-93
2021/07/17 09:26:54;;;;;;;;;;;20.00;99.90;;;;;;5096442;27;20353;-93
2021/07/17 09:29:19;;;;;;;;;;;20.00;99.90;;;;;;5097087;27;19924;-94
2021/07/17 09:31:48;;;;;;;;;;;20.00;99.90;;;;;;5114707;27;20281;-93
2021/07/17 09:34:14;;;;;;;;;;;20.00;99.90;;;;;;5113824;27;20014;-93
2021/07/17 09:36:51;;;;;;;;;;;20.10;99.90;;;;;;5092735;28;19988;-93
2021/07/17 09:39:18;;;;;;;;;;;20.20;99.90;;;;;;5095182;27;19951;-93
2021/07/17 09:42:00;;;;;;;;;;;20.30;99.90;;;;;;5097813;27;20343;-93
2021/07/17 09:44:28;;;;;;;;;;;20.30;99.90;;;;;;5132156;27;20401;-93
2021/07/17 09:46:53;;;;;;;;;;;20.40;99.90;;;;;;5128717;27;19920;-93
2021/07/17 09:49:20;;;;;;;;;;;20.40;99.90;;;;;;5114262;27;19942;-93
2021/07/17 09:51:46;;;;;;;;;;;20.40;99.90;;;;;;5094279;28;19926;-94
2021/07/17 09:54:12;;;;;;;;;;;20.50;99.90;;;;;;5113673;27;19923;-93
2021/07/17 09:56:40;;;;;;;;;;;20.60;99.90;;;;;;5093852;28;20014;-93
2021/07/17 09:59:07;;;;;;;;;;;20.70;99.90;;;;;;5114141;27;20026;-95
2021/07/17 10:01:34;;;;;;;;;;;20.80;99.90;;;;;;5113157;27;19955;-94
2021/07/17 10:04:01;;;;;;;;;;;20.70;99.90;;;;;;5114411;27;19931;-94
2021/07/17 10:06:32;;;;;;;;;;;20.80;99.90;;;;;;5142990;27;19943;-93
2021/07/17 10:09:05;;;;;;;;;;;20.80;99.90;;;;;;5114740;27;20370;-93
2021/07/17 10:11:32;;;;;;;;;;;20.80;99.90;;;;;;5098344;27;19967;-94
2021/07/17 10:13:58;;;;;;;;;;;20.80;99.90;;;;;;5149869;27;19919;-94
2021/07/17 10:16:26;;;;;;;;;;;20.80;99.90;;;;;;5148229;27;20712;-93
2021/07/17 10:18:53;;;;;;;;;;;20.80;99.90;;;;;;5113776;27;20409;-92
2021/07/17 10:21:18;;;;;;;;;;;20.80;99.90;;;;;;5083849;27;19927;-95
2021/07/17 10:23:44;;;;;;;;;;;20.80;99.90;;;;;;5079727;27;20298;-94
2021/07/17 10:26:11;;;;;;;;;;;20.90;99.90;;;;;;5096439;27;19924;-93
2021/07/17 10:28:37;;;;;;;;;;;20.90;99.90;;;;;;5092796;28;19927;-92
2021/07/17 10:31:03;;;;;;;;;;;21.00;99.90;;;;;;5094293;27;19927;-93
2021/07/17 10:33:31;;;;;;;;;;;21.00;99.90;;;;;;5111058;27;19927;-92
2021/07/17 10:35:58;;;;;;;;;;;21.00;99.90;;;;;;5111154;27;19930;-94
2021/07/17 10:38:24;;;;;;;;;;;21.10;99.90;;;;;;5094455;27;19976;-93
2021/07/17 10:40:51;;;;;;;;;;;21.20;99.90;;;;;;5094714;27;20411;-93
2021/07/17 10:43:18;;;;;;;;;;;21.20;99.90;;;;;;5069992;27;20007;-95
2021/07/17 10:45:48;;;;;;;;;;;21.30;99.90;;;;;;5092902;27;20374;-93
2021/07/17 10:48:23;;;;;;;;;;;21.40;99.90;;;;;;5094345;27;19919;-93
2021/07/17 10:50:48;;;;;;;;;;;21.30;99.90;;;;;;5109196;27;19919;-93
2021/07/17 10:53:34;;;;;;;;;;;21.40;99.90;;;;;;5094435;27;19933;-94
2021/07/17 10:56:20;;;;;;;;;;;21.30;99.90;;;;;;5105412;27;19924;-93
2021/07/17 10:58:45;;;;;;;;;;;21.40;99.90;;;;;;5093847;27;19934;-94
2021/07/17 11:01:11;;;;;;;;;;;21.40;99.90;;;;;;5077686;27;19927;-93
2021/07/17 11:03:37;;;;;;;;;;;21.40;99.90;;;;;;5092257;27;19929;-92
2021/07/17 11:06:22;;;;;;;;;;;21.40;99.90;;;;;;5077107;27;19958;-94
2021/07/17 11:08:48;;;;;;;;;;;21.40;99.90;;;;;;5118780;27;20083;-93
2021/07/17 11:11:30;;;;;;;;;;;21.40;99.90;;;;;;5081232;27;20413;-94
2021/07/17 11:14:05;;;;;;;;;;;21.50;99.90;;;;;;5093074;28;19927;-93
2021/07/17 11:16:43;;;;;;;;;;;21.50;99.90;;;;;;5092335;28;22252;-93
2021/07/17 11:19:21;;;;;;;;;;;21.60;99.90;;;;;;5109345;28;19934;-94
2021/07/17 11:21:47;;;;;;;;;;;21.60;99.90;;;;;;5096853;28;19924;-93
2021/07/17 11:24:13;;;;;;;;;;;21.60;99.90;;;;;;5094583;28;20289;-93
2021/07/17 11:26:39;;;;;;;;;;;21.60;99.90;;;;;;5111202;28;20584;-93
2021/07/17 11:29:06;;;;;;;;;;;21.50;99.90;;;;;;5127871;27;19930;-93
2021/07/17 11:31:37;;;;;;;;;;;21.50;99.90;;;;;;5099848;27;19923;-93
2021/07/17 11:34:12;;;;;;;;;;;21.50;99.90;;;;;;5116287;27;19916;-93
2021/07/17 11:36:38;;;;;;;;;;;21.50;99.90;;;;;;5102714;27;20025;-94
2021/07/17 11:39:05;;;;;;;;;;;21.50;99.90;;;;;;5099521;27;19920;-93
2021/07/17 11:41:31;;;;;;;;;;;21.50;99.90;;;;;;5097990;27;19924;-94
2021/07/17 11:43:56;;;;;;;;;;;21.50;99.90;;;;;;5117366;27;19955;-94
2021/07/17 11:46:23;;;;;;;;;;;21.60;99.90;;;;;;5082552;27;20382;-93
2021/07/17 11:49:08;;;;;;;;;;;21.70;99.90;;;;;;5102015;27;20014;-93
2021/07/17 11:51:46;;;;;;;;;;;21.70;99.90;;;;;;5122587;27;19927;-92
2021/07/17 11:54:12;;;;;;;;;;;21.80;99.90;;;;;;5114631;27;19923;-93
2021/07/17 11:56:37;;;;;;;;;;;21.80;99.90;;;;;;5118703;27;20396;-93
2021/07/17 11:59:13;;;;;;;;;;;21.80;99.90;;;;;;5104860;27;19923;-93
2021/07/17 12:01:39;;;;;;;;;;;21.90;99.90;;;;;;5098219;27;19919;-93
2021/07/17 12:04:05;;;;;;;;;;;21.90;99.90;;;;;;5119282;27;19935;-93
2021/07/17 12:06:32;;;;;;;;;;;22.00;99.90;;;;;;5119532;27;19919;-93
2021/07/17 12:09:10;;;;;;;;;;;22.00;99.90;;;;;;5104161;27;19996;-93
2021/07/17 12:11:36;;;;;;;;;;;22.00;99.90;;;;;;5101064;27;19923;-93
2021/07/17 12:14:20;;;;;;;;;;;22.00;99.90;;;;;;5116103;27;19929;-93
2021/07/17 12:16:46;;;;;;;;;;;22.00;99.90;;;;;;5097421;27;19964;-93
2021/07/17 12:19:16;;;;;;;;;;;22.00;99.90;;;;;;5081506;27;19915;-93
2021/07/17 12:21:42;;;;;;;;;;;22.10;99.90;;;;;;5145964;27;19988;-92
2021/07/17 12:24:08;;;;;;;;;;;22.10;99.90;;;;;;5114014;27;19927;-93
2021/07/17 12:26:33;;;;;;;;;;;22.10;99.90;;;;;;5082257;27;19926;-92
2021/07/17 12:28:59;;;;;;;;;;;22.20;99.90;;;;;;5119178;27;19934;-93
2021/07/17 12:31:25;;;;;;;;;;;22.30;99.90;;;;;;5080586;27;19923;-93
2021/07/17 12:33:50;;;;;;;;;;;22.30;99.90;;;;;;5077348;28;20445;-94
2021/07/17 12:36:21;;;;;;;;;;;22.30;99.90;;;;;;5093631;27;19937;-93
2021/07/17 12:38:48;;;;;;;;;;;22.40;99.90;;;;;;5115544;27;19944;-93
2021/07/17 12:41:16;;;;;;;;;;;22.40;99.90;;;;;;5091362;27;19938;-93
2021/07/17 12:43:42;;;;;;;;;;;22.40;99.90;;;;;;5098077;27;20343;-93
2021/07/17 12:46:13;;;;;;;;;;;22.40;99.90;;;;;;5096568;27;19927;-93
2021/07/17 12:48:45;;;;;;;;;;;22.40;99.90;;;;;;5099097;27;19949;-93
2021/07/17 12:51:13;;;;;;;;;;;22.30;99.90;;;;;;5149760;27;19927;-94
2021/07/17 12:53:40;;;;;;;;;;;22.30;99.90;;;;;;5115454;27;19973;-94
2021/07/17 12:56:05;;;;;;;;;;;22.40;99.90;;;;;;5156383;27;19915;-93
2021/07/17 12:58:32;;;;;;;;;;;22.40;99.90;;;;;;5149973;27;19953;-92
2021/07/17 13:00:58;;;;;;;;;;;22.40;99.90;;;;;;5149825;27;19972;-93
2021/07/17 13:03:24;;;;;;;;;;;22.40;99.90;;;;;;5115415;27;19920;-93
2021/07/17 13:05:51;;;;;;;;;;;22.40;99.90;;;;;;5099806;27;19928;-93
2021/07/17 13:08:20;;;;;;;;;;;22.50;99.90;;;;;;5098294;27;19919;-93
2021/07/17 13:10:46;;;;;;;;;;;22.50;99.90;;;;;;5148013;27;19976;-93
2021/07/17 13:13:12;;;;;;;;;;;22.60;99.90;;;;;;5146093;27;20014;-93
2021/07/17 13:15:39;;;;;;;;;;;22.70;99.90;;;;;;5097614;27;20034;-94
2021/07/17 13:18:21;;;;;;;;;;;22.70;99.90;;;;;;5097606;27;19923;-93
2021/07/17 13:21:05;;;;;;;;;;;22.80;99.90;;;;;;5108885;27;20564;-93
2021/07/17 13:23:50;;;;;;;;;;;22.90;99.90;;;;;;5111501;27;19927;-93
2021/07/17 13:26:16;;;;;;;;;;;22.90;99.90;;;;;;5095072;27;19959;-93
2021/07/17 13:28:42;;;;;;;;;;;23.00;99.90;;;;;;5113707;27;20427;-93
2021/07/17 13:31:18;;;;;;;;;;;23.00;99.90;;;;;;5110959;28;19951;-94
2021/07/17 13:33:44;;;;;;;;;;;23.10;99.90;;;;;;5145066;27;20396;-93
2021/07/17 13:36:12;;;;;;;;;;;23.20;99.90;;;;;;5096209;27;19923;-93
2021/07/17 13:38:38;;;;;;;;;;;23.20;99.90;;;;;;5095559;27;20382;-93
2021/07/17 13:41:09;;;;;;;;;;;23.30;99.90;;;;;;5097152;27;19931;-93
2021/07/17 13:43:34;;;;;;;;;;;23.40;99.90;;;;;;5096819;27;19928;-93
2021/07/17 13:46:02;;;;;;;;;;;23.40;99.90;;;;;;5098220;27;19919;-93
2021/07/17 13:48:28;;;;;;;;;;;23.50;99.90;;;;;;5114699;27;20299;-94
2021/07/17 13:51:03;;;;;;;;;;;23.50;99.90;;;;;;5081275;27;19931;-92
2021/07/17 13:53:28;;;;;;;;;;;23.50;99.90;;;;;;5113564;27;19957;-92
2021/07/17 13:56:03;;;;;;;;;;;23.50;99.90;;;;;;5096468;27;19928;-94
2021/07/17 13:58:29;;;;;;;;;;;23.50;99.90;;;;;;5130913;27;19919;-92
2021/07/17 14:00:55;;;;;;;;;;;23.60;99.90;;;;;;5095846;27;19991;-93
2021/07/17 14:03:26;;;;;;;;;;;23.60;99.90;;;;;;5146555;27;19924;-92
2021/07/17 14:05:52;;;;;;;;;;;23.50;99.90;;;;;;5129500;27;19972;-93
2021/07/17 14:08:19;;;;;;;;;;;23.50;99.90;;;;;;5130118;27;19919;-92
2021/07/17 14:10:45;;;;;;;;;;;23.50;99.90;;;;;;5130134;27;19966;-93
2021/07/17 14:13:12;;;;;;;;;;;23.50;99.90;;;;;;5130759;27;19947;-93
2021/07/17 14:15:38;;;;;;;;;;;23.40;99.90;;;;;;5089016;28;19981;-92